Time;durP1;ratioP1;P1;durP2;ratioP2;P2;SDS_P1;SDS_P2;PMS_P1;PMS_P2;Temp;Humidity;BMP_temperature;BMP_pressure;BME280_temperature;BME280_humidity;BME280_pressure;Samples;Min_cycle;Max_cycle;Signal;HPM_P1;HPM_P2
2024/03/05 00:00:16;;;;;;;10.52;6.22;;;12.20;57.00;;;;;;6309594;28;20106;-76
2024/03/05 00:03:17;;;;;;;8.80;4.70;;;12.20;57.00;;;;;;6286143;28;20028;-77
2024/03/05 00:06:18;;;;;;;15.27;5.50;;;12.10;57.20;;;;;;6273462;28;20027;-75
2024/03/05 00:09:21;;;;;;;12.50;5.53;;;12.00;57.30;;;;;;6307282;28;20429;-76
2024/03/05 00:12:22;;;;;;;10.00;5.15;;;11.90;57.50;;;;;;6313800;28;20027;-76
2024/03/05 00:15:26;;;;;;;7.57;4.22;;;11.90;57.60;;;;;;6299103;28;20029;-76
2024/03/05 00:18:29;;;;;;;10.55;5.18;;;11.90;57.70;;;;;;6300914;28;20086;-76
2024/03/05 00:21:31;;;;;;;13.55;4.78;;;11.70;57.80;;;;;;6297742;28;20057;-76
2024/03/05 00:24:32;;;;;;;9.82;4.25;;;11.70;57.90;;;;;;6308590;28;20039;-76
2024/03/05 00:27:33;;;;;;;11.77;5.00;;;11.60;58.20;;;;;;6298946;28;20059;-75
2024/03/05 00:30:34;;;;;;;11.60;4.85;;;11.50;58.30;;;;;;6270636;28;20380;-75
2024/03/05 00:33:35;;;;;;;11.40;5.30;;;11.50;58.40;;;;;;6309466;28;20364;-76
2024/03/05 00:36:37;;;;;;;12.77;5.30;;;11.50;58.40;;;;;;6302396;28;20028;-75
2024/03/05 00:39:40;;;;;;;11.10;5.15;;;11.40;58.60;;;;;;6298776;28;20023;-76
2024/03/05 00:42:42;;;;;;;13.77;5.22;;;11.40;58.70;;;;;;6296852;28;20138;-77
2024/03/05 00:45:43;;;;;;;8.27;4.47;;;11.40;58.80;;;;;;6299972;28;20105;-75
2024/03/05 00:48:44;;;;;;;11.55;4.75;;;11.30;58.90;;;;;;6297829;28;20028;-75
2024/03/05 00:51:47;;;;;;;10.63;5.70;;;11.30;59.60;;;;;;6299350;28;20020;-77
2024/03/05 00:54:49;;;;;;;11.15;5.65;;;11.30;59.10;;;;;;6289144;28;20064;-76
2024/03/05 00:57:51;;;;;;;12.98;5.60;;;11.30;59.20;;;;;;6294141;28;20052;-77
2024/03/05 01:00:54;;;;;;;12.10;5.18;;;11.30;59.30;;;;;;6304998;28;20117;-76
2024/03/05 01:03:55;;;;;;;11.60;5.80;;;11.30;59.40;;;;;;6309127;28;20168;-76
2024/03/05 01:06:59;;;;;;;11.52;5.68;;;11.30;59.40;;;;;;6305994;28;20040;-76
2024/03/05 01:10:00;;;;;;;12.40;5.47;;;11.30;59.60;;;;;;6289073;28;20038;-77
2024/03/05 01:13:01;;;;;;;11.20;5.07;;;11.30;59.60;;;;;;6301071;28;20032;-75
2024/03/05 01:16:01;;;;;;;11.52;4.82;;;11.30;59.70;;;;;;6291660;28;20028;-75
2024/03/05 01:19:03;;;;;;;10.23;4.72;;;11.30;59.70;;;;;;6304572;28;20028;-76
2024/03/05 01:22:04;;;;;;;11.32;5.32;;;11.30;59.60;;;;;;6286666;28;20024;-76
2024/03/05 01:25:07;;;;;;;11.38;4.97;;;11.30;59.60;;;;;;6306316;28;20333;-76
2024/03/05 01:28:08;;;;;;;10.55;5.78;;;11.30;59.60;;;;;;6284429;28;20020;-76
2024/03/05 01:31:09;;;;;;;14.95;6.20;;;11.30;59.80;;;;;;6308916;28;20039;-75
2024/03/05 01:34:10;;;;;;;10.20;6.20;;;11.30;59.80;;;;;;6305572;28;20027;-76
2024/03/05 01:37:11;;;;;;;12.38;5.72;;;11.30;59.70;;;;;;6297200;28;20028;-75
2024/03/05 01:40:12;;;;;;;22.33;6.35;;;11.30;59.70;;;;;;6313145;28;20027;-76
2024/03/05 01:43:14;;;;;;;12.88;7.13;;;11.30;59.80;;;;;;6308128;28;20047;-76
2024/03/05 01:46:17;;;;;;;12.52;6.25;;;11.30;59.90;;;;;;6316961;28;20434;-76
2024/03/05 01:49:20;;;;;;;17.35;6.88;;;11.30;59.80;;;;;;6313322;28;20119;-76
2024/03/05 01:52:27;;;;;;;17.05;6.88;;;11.30;59.90;;;;;;6303037;28;20051;-76
2024/03/05 01:55:30;;;;;;;16.67;5.90;;;11.30;59.90;;;;;;6293463;28;20035;-76
2024/03/05 01:58:31;;;;;;;14.85;6.75;;;11.30;59.90;;;;;;6314895;28;20110;-75
2024/03/05 02:01:34;;;;;;;12.88;6.50;;;11.30;59.90;;;;;;6297695;28;20088;-75
2024/03/05 02:04:38;;;;;;;10.68;5.43;;;11.40;59.90;;;;;;6281014;28;20052;-77
2024/03/05 02:07:40;;;;;;;12.70;6.57;;;11.40;59.90;;;;;;6311347;28;20044;-76
2024/03/05 02:10:42;;;;;;;9.32;5.10;;;11.40;60.00;;;;;;6300198;28;20064;-75
2024/03/05 02:13:44;;;;;;;12.57;5.55;;;11.50;60.10;;;;;;6308117;28;20077;-76
2024/03/05 02:16:48;;;;;;;24.38;5.10;;;11.50;60.10;;;;;;6303805;28;20439;-75
2024/03/05 02:19:50;;;;;;;16.70;5.60;;;11.50;60.00;;;;;;6304153;28;20036;-76
2024/03/05 02:22:51;;;;;;;12.38;5.88;;;11.60;59.90;;;;;;6295663;28;20075;-78
2024/03/05 02:25:52;;;;;;;11.73;5.85;;;11.60;59.90;;;;;;6291644;28;20036;-75
2024/03/05 02:28:56;;;;;;;14.27;6.07;;;11.60;59.80;;;;;;6302340;28;20039;-76
2024/03/05 02:31:58;;;;;;;10.18;5.07;;;11.60;59.70;;;;;;6296979;28;20041;-75
2024/03/05 02:35:00;;;;;;;11.77;6.25;;;11.60;59.70;;;;;;6314579;28;20101;-77
2024/03/05 02:38:05;;;;;;;10.38;5.15;;;11.70;59.70;;;;;;6315987;28;20028;-76
2024/03/05 02:41:06;;;;;;;11.25;4.93;;;11.70;59.60;;;;;;6299874;28;20082;-75
2024/03/05 02:44:07;;;;;;;18.38;6.72;;;11.70;59.60;;;;;;6294984;28;20087;-76
2024/03/05 02:47:08;;;;;;;17.00;6.68;;;11.70;59.60;;;;;;6295031;28;20464;-75
2024/03/05 02:50:09;;;;;;;10.68;5.47;;;11.70;59.60;;;;;;6311326;28;20023;-77
2024/03/05 02:53:11;;;;;;;12.90;5.97;;;11.80;59.70;;;;;;6293893;28;20032;-75
2024/03/05 02:56:13;;;;;;;17.10;6.65;;;11.80;59.60;;;;;;6313882;28;20119;-76
2024/03/05 02:59:14;;;;;;;15.52;6.75;;;11.80;59.60;;;;;;6299724;28;20105;-76
2024/03/05 03:02:15;;;;;;;16.35;6.25;;;11.80;59.70;;;;;;6311594;28;20067;-76
2024/03/05 03:05:17;;;;;;;13.63;6.20;;;11.70;59.60;;;;;;6314764;28;20031;-77
2024/03/05 03:08:18;;;;;;;9.70;5.78;;;11.80;59.60;;;;;;6311387;28;20020;-76
2024/03/05 03:11:20;;;;;;;9.70;6.03;;;11.80;59.50;;;;;;6293452;28;20029;-76
2024/03/05 03:14:21;;;;;;;13.52;6.28;;;11.80;59.50;;;;;;6288722;28;20111;-75
2024/03/05 03:17:22;;;;;;;15.48;6.25;;;11.80;59.40;;;;;;6301605;28;20032;-76
2024/03/05 03:20:23;;;;;;;12.60;5.80;;;11.70;59.40;;;;;;6293742;28;20556;-77
2024/03/05 03:23:24;;;;;;;12.50;6.15;;;11.70;59.50;;;;;;6300071;28;20036;-76
2024/03/05 03:26:27;;;;;;;14.05;6.00;;;11.70;59.50;;;;;;6286893;28;20111;-77
2024/03/05 03:29:28;;;;;;;15.65;5.97;;;11.70;59.70;;;;;;6293028;28;20039;-77
2024/03/05 03:32:32;;;;;;;10.68;5.55;;;11.50;59.70;;;;;;6290705;28;20032;-76
2024/03/05 03:35:35;;;;;;;12.43;5.53;;;11.50;59.90;;;;;;6289020;28;20021;-76
2024/03/05 03:38:37;;;;;;;11.20;5.85;;;11.40;60.20;;;;;;6299677;28;20491;-75
2024/03/05 03:41:41;;;;;;;20.15;6.53;;;11.30;60.30;;;;;;6302391;28;20024;-74
2024/03/05 03:44:42;;;;;;;12.40;6.70;;;11.30;60.60;;;;;;6306302;28;20040;-74
2024/03/05 03:47:43;;;;;;;17.33;5.75;;;11.20;60.70;;;;;;6305600;28;20594;-75
2024/03/05 03:55:20;;;;;;;21.25;7.70;;;11.10;61.40;;;;;;6306122;28;20040;-77
2024/03/05 03:58:21;;;;;;;18.20;6.30;;;11.00;61.70;;;;;;6308695;28;20031;-75
2024/03/05 04:01:22;;;;;;;15.23;6.70;;;11.00;62.00;;;;;;6308740;28;20103;-76
2024/03/05 04:04:23;;;;;;;20.48;6.97;;;10.90;62.10;;;;;;6296795;28;20072;-76
2024/03/05 04:07:26;;;;;;;18.13;6.55;;;10.80;62.40;;;;;;6317409;28;20086;-76
2024/03/05 04:10:27;;;;;;;15.60;6.85;;;10.80;62.70;;;;;;6301585;28;20174;-76
2024/03/05 04:13:28;;;;;;;14.23;6.05;;;10.80;62.70;;;;;;6308797;28;20043;-76
2024/03/05 04:16:29;;;;;;;14.80;5.65;;;10.80;62.80;;;;;;6312874;28;20032;-76
2024/03/05 04:19:30;;;;;;;17.60;6.95;;;10.80;62.90;;;;;;6298792;28;20024;-76
2024/03/05 04:22:51;;;;;;;15.32;6.47;;;10.80;63.00;;;;;;6305443;28;20036;-76
2024/03/05 04:26:29;;;;;;;14.88;6.53;;;10.90;62.90;;;;;;6326501;28;20039;-77
2024/03/05 04:29:57;;;;;;;9.63;5.43;;;10.90;62.80;;;;;;6309109;28;20064;-77
2024/03/05 04:33:03;;;;;;;12.18;6.00;;;10.90;62.80;;;;;;6290092;28;20472;-76
2024/03/05 04:36:09;;;;;;;17.17;6.00;;;10.90;62.90;;;;;;6312245;28;20073;-75
2024/03/05 04:39:15;;;;;;;12.43;5.50;;;11.00;62.90;;;;;;6315596;28;20091;-76
2024/03/05 04:42:16;;;;;;;11.60;5.90;;;11.00;62.90;;;;;;6315583;28;20020;-76
2024/03/05 04:45:17;;;;;;;13.82;6.30;;;11.00;62.80;;;;;;6297295;28;20031;-75
2024/03/05 04:48:19;;;;;;;17.70;6.85;;;11.00;62.80;;;;;;6301753;28;20024;-76
2024/03/05 04:51:21;;;;;;;14.50;6.75;;;11.10;62.60;;;;;;6303761;28;20031;-75
2024/03/05 04:54:22;;;;;;;14.50;6.35;;;11.10;62.30;;;;;;6291357;28;20054;-76
2024/03/05 04:57:23;;;;;;;11.25;5.45;;;11.20;62.20;;;;;;6311007;28;20031;-76
2024/03/05 05:00:25;;;;;;;10.38;5.50;;;11.20;62.10;;;;;;6282107;28;20385;-75
2024/03/05 05:03:26;;;;;;;14.15;6.43;;;11.10;62.00;;;;;;6311155;28;20031;-75
2024/03/05 05:06:27;;;;;;;15.10;6.45;;;11.10;62.10;;;;;;6309208;28;20092;-76
2024/03/05 05:09:28;;;;;;;12.65;5.97;;;11.00;62.20;;;;;;6310081;28;20034;-77
2024/03/05 05:12:29;;;;;;;12.45;7.10;;;11.10;62.20;;;;;;6314011;28;20020;-75
2024/03/05 05:15:30;;;;;;;14.25;6.50;;;11.10;62.30;;;;;;6295941;28;20122;-77
2024/03/05 05:18:34;;;;;;;15.30;6.40;;;11.10;62.30;;;;;;6309461;28;20081;-76
2024/03/05 05:21:36;;;;;;;9.60;5.43;;;11.10;62.30;;;;;;6296231;28;20021;-76
2024/03/05 05:24:38;;;;;;;16.15;6.97;;;11.10;62.30;;;;;;6258388;28;20037;-75
2024/03/05 05:27:39;;;;;;;19.48;7.82;;;11.20;62.30;;;;;;6310847;28;20008;-76
2024/03/05 05:30:40;;;;;;;14.30;6.20;;;11.10;62.20;;;;;;6311353;28;20039;-76
2024/03/05 05:33:42;;;;;;;14.38;5.90;;;11.10;62.30;;;;;;6291631;28;20031;-77
2024/03/05 05:36:44;;;;;;;12.93;6.07;;;11.10;62.40;;;;;;6315940;28;20053;-79
2024/03/05 05:39:45;;;;;;;13.23;6.13;;;11.10;62.30;;;;;;6302297;28;20038;-75
2024/03/05 05:42:49;;;;;;;15.82;6.50;;;11.10;63.00;;;;;;6315944;28;20025;-77
2024/03/05 05:45:50;;;;;;;14.88;6.15;;;11.10;62.10;;;;;;6302546;28;20625;-75
2024/03/05 05:48:52;;;;;;;17.67;7.07;;;11.20;62.20;;;;;;6295885;28;20047;-76
2024/03/05 05:51:53;;;;;;;11.20;5.45;;;11.10;62.00;;;;;;6306157;28;20043;-75
2024/03/05 05:54:56;;;;;;;10.57;5.43;;;11.10;62.10;;;;;;6307641;28;20100;-76
2024/03/05 05:57:57;;;;;;;11.68;5.97;;;11.10;62.00;;;;;;6296330;28;20093;-76
2024/03/05 06:01:04;;;;;;;11.05;5.40;;;11.20;62.10;;;;;;6307656;28;20020;-76
2024/03/05 06:04:09;;;;;;;15.10;6.32;;;11.10;61.90;;;;;;6313669;28;20036;-78
2024/03/05 06:07:11;;;;;;;13.23;6.72;;;11.20;62.00;;;;;;6320360;28;20081;-76
2024/03/05 06:10:17;;;;;;;18.60;6.05;;;11.20;61.90;;;;;;6311879;28;20055;-77
2024/03/05 06:13:18;;;;;;;13.68;5.90;;;11.20;61.90;;;;;;6311373;28;20094;-76
2024/03/05 06:16:19;;;;;;;10.52;5.60;;;11.20;62.00;;;;;;6317576;28;20039;-76
2024/03/05 06:19:20;;;;;;;12.95;6.03;;;11.20;62.00;;;;;;6309107;28;20385;-76
2024/03/05 06:22:22;;;;;;;18.08;6.65;;;11.10;61.90;;;;;;6295378;28;20095;-77
2024/03/05 06:25:23;;;;;;;11.82;6.03;;;11.10;62.00;;;;;;6307434;28;20048;-76
2024/03/05 06:28:25;;;;;;;14.70;5.93;;;11.10;62.00;;;;;;6306325;28;20043;-76
2024/03/05 06:31:26;;;;;;;11.75;6.13;;;11.10;62.10;;;;;;6308035;28;20719;-75
2024/03/05 06:34:27;;;;;;;16.20;6.68;;;11.10;62.20;;;;;;6313937;28;20028;-76
2024/03/05 06:37:28;;;;;;;14.13;6.68;;;11.10;62.40;;;;;;6302429;28;20031;-76
2024/03/05 06:40:29;;;;;;;16.77;6.53;;;11.10;62.60;;;;;;6301792;28;20055;-76
2024/03/05 06:43:36;;;;;;;19.30;7.18;;;11.00;62.60;;;;;;6312850;28;20034;-76
2024/03/05 06:46:41;;;;;;;18.90;6.85;;;11.00;62.60;;;;;;6309046;28;20094;-75
2024/03/05 06:49:45;;;;;;;17.73;6.45;;;11.00;62.60;;;;;;6308024;28;20251;-76
2024/03/05 06:59:27;;;;;;;15.68;5.57;;;11.10;62.50;;;;;;6290573;28;20040;-76
2024/03/05 07:02:30;;;;;;;13.68;6.15;;;11.00;62.50;;;;;;6297824;28;20029;-76
2024/03/05 07:05:32;;;;;;;15.18;6.30;;;11.00;62.60;;;;;;6306634;28;20040;-77
2024/03/05 07:08:40;;;;;;;11.23;5.85;;;11.00;62.60;;;;;;6318742;28;20119;-75
2024/03/05 07:11:45;;;;;;;17.95;7.78;;;11.10;62.50;;;;;;6299702;28;20017;-76
2024/03/05 07:14:48;;;;;;;12.35;6.72;;;11.10;62.50;;;;;;6293707;28;20028;-76
2024/03/05 07:17:49;;;;;;;12.32;5.88;;;11.00;62.40;;;;;;6289073;28;20029;-77
2024/03/05 07:20:50;;;;;;;13.10;6.53;;;10.90;62.30;;;;;;6273931;28;20024;-78
2024/03/05 07:23:52;;;;;;;17.10;6.70;;;10.90;62.40;;;;;;6306936;28;20054;-77
2024/03/05 07:26:55;;;;;;;18.52;6.90;;;10.90;62.50;;;;;;6291460;28;20397;-76
2024/03/05 07:29:57;;;;;;;16.92;6.00;;;10.80;62.60;;;;;;6301428;28;20095;-77
2024/03/05 07:32:59;;;;;;;20.05;7.47;;;10.80;62.60;;;;;;6318862;28;20032;-77
2024/03/05 07:36:01;;;;;;;14.10;7.28;;;10.80;62.80;;;;;;6298688;28;20046;-76
2024/03/05 07:39:02;;;;;;;14.90;6.85;;;10.80;62.80;;;;;;6313421;28;20203;-77
2024/03/05 07:42:05;;;;;;;17.83;7.43;;;10.90;62.90;;;;;;6297249;28;20032;-77
2024/03/05 07:45:07;;;;;;;18.10;7.18;;;10.90;63.80;;;;;;6298103;28;20115;-77
2024/03/05 07:48:10;;;;;;;12.23;7.00;;;11.00;62.90;;;;;;6280912;28;20028;-78
2024/03/05 07:51:12;;;;;;;15.13;7.65;;;11.10;62.80;;;;;;6297146;28;20480;-77
2024/03/05 07:54:13;;;;;;;13.40;6.80;;;11.20;62.70;;;;;;6301655;28;20032;-76
2024/03/05 07:57:14;;;;;;;18.75;8.55;;;11.20;62.60;;;;;;6285882;28;20035;-76
2024/03/05 08:00:20;;;;;;;19.30;7.57;;;11.30;62.30;;;;;;6270229;28;20028;-77
2024/03/05 08:03:21;;;;;;;17.65;8.32;;;11.40;62.10;;;;;;6282099;28;20137;-76
2024/03/05 08:06:22;;;;;;;17.75;8.52;;;11.40;61.90;;;;;;6311409;28;20071;-78
2024/03/05 08:09:23;;;;;;;20.05;8.20;;;11.60;61.70;;;;;;6312366;28;20063;-78
2024/03/05 08:12:26;;;;;;;22.92;9.23;;;11.60;61.50;;;;;;6292872;28;20016;-77
2024/03/05 08:19:51;;;;;;;17.13;8.93;;;11.80;61.10;;;;;;6306046;28;20032;-76
2024/03/05 08:22:54;;;;;;;22.20;9.32;;;11.90;61.00;;;;;;6307436;28;20051;-78
2024/03/05 08:25:55;;;;;;;21.20;8.48;;;12.00;60.50;;;;;;6304311;28;20181;-78
2024/03/05 08:28:56;;;;;;;26.77;10.98;;;12.10;60.20;;;;;;6268238;28;20114;-77
2024/03/05 08:31:58;;;;;;;22.30;10.45;;;12.20;59.80;;;;;;6295366;28;20020;-78
2024/03/05 08:34:59;;;;;;;21.48;8.85;;;12.30;59.70;;;;;;6302816;28;20031;-77
2024/03/05 08:38:01;;;;;;;23.45;9.43;;;12.30;59.60;;;;;;6292866;28;20152;-78
2024/03/05 08:41:01;;;;;;;20.40;9.32;;;12.40;59.50;;;;;;6313548;28;20047;-77
2024/03/05 08:44:02;;;;;;;21.02;10.43;;;12.70;59.40;;;;;;6305606;28;20547;-77
2024/03/05 08:47:04;;;;;;;18.42;9.38;;;12.70;59.20;;;;;;6312006;28;20115;-78
2024/03/05 08:50:06;;;;;;;18.98;9.20;;;12.90;58.50;;;;;;6307288;28;20026;-78
2024/03/05 08:53:08;;;;;;;27.02;10.20;;;13.00;58.30;;;;;;6302521;28;20025;-76
2024/03/05 08:56:10;;;;;;;23.50;7.78;;;13.10;57.90;;;;;;6296995;28;20083;-80
2024/03/05 08:59:10;;;;;;;19.95;8.13;;;13.20;57.30;;;;;;6270217;28;20068;-76
2024/03/05 09:02:13;;;;;;;19.50;9.00;;;13.20;57.20;;;;;;6309189;28;20031;-77
2024/03/05 09:05:15;;;;;;;19.35;7.03;;;13.20;57.20;;;;;;6284492;28;20039;-77
2024/03/05 09:08:15;;;;;;;13.45;6.78;;;13.30;57.10;;;;;;6301971;28;20103;-78
2024/03/05 09:11:20;;;;;;;17.33;7.30;;;13.40;57.00;;;;;;6299968;28;20035;-76
2024/03/05 09:14:22;;;;;;;16.77;8.18;;;13.50;56.50;;;;;;6293641;28;20047;-78
2024/03/05 09:17:24;;;;;;;21.05;7.97;;;13.60;56.20;;;;;;6313490;28;20031;-77
2024/03/05 09:20:25;;;;;;;21.63;7.63;;;13.70;55.90;;;;;;6294119;28;20024;-76
2024/03/05 09:23:26;;;;;;;15.70;7.63;;;13.70;55.80;;;;;;6300300;28;20036;-76
2024/03/05 09:26:29;;;;;;;19.88;7.28;;;13.80;55.60;;;;;;6300188;28;20545;-77
2024/03/05 09:29:30;;;;;;;16.90;8.18;;;13.80;55.50;;;;;;6282259;28;20100;-78
2024/03/05 09:32:31;;;;;;;12.45;6.57;;;13.90;55.20;;;;;;6300183;28;20039;-75
2024/03/05 09:35:34;;;;;;;19.45;7.88;;;13.90;55.10;;;;;;6300281;28;20024;-76
2024/03/05 09:38:36;;;;;;;22.02;9.23;;;13.90;54.90;;;;;;6302408;28;20077;-78
2024/03/05 09:41:42;;;;;;;22.27;8.10;;;13.90;54.90;;;;;;6306499;28;20108;-76
2024/03/05 09:44:45;;;;;;;15.48;7.95;;;14.00;54.80;;;;;;6323944;28;20208;-77
2024/03/05 09:47:49;;;;;;;16.83;6.35;;;14.10;54.80;;;;;;6303729;28;20020;-77
2024/03/05 09:50:53;;;;;;;19.88;8.13;;;14.10;54.70;;;;;;6282565;28;20025;-76
2024/03/05 09:53:53;;;;;;;13.00;6.78;;;14.20;54.60;;;;;;6298595;28;20023;-76
2024/03/05 09:56:57;;;;;;;18.55;7.20;;;14.30;54.30;;;;;;6290256;28;20468;-77
2024/03/05 09:59:58;;;;;;;21.02;7.85;;;14.30;54.20;;;;;;6305126;28;20024;-76
2024/03/05 10:02:59;;;;;;;15.50;6.82;;;14.40;54.00;;;;;;6289448;28;20039;-78
2024/03/05 10:06:05;;;;;;;18.73;6.97;;;14.50;53.80;;;;;;6301828;28;20036;-78
2024/03/05 10:09:10;;;;;;;18.20;6.72;;;14.60;53.50;;;;;;6311673;28;20012;-77
2024/03/05 10:12:15;;;;;;;15.73;5.55;;;14.70;53.30;;;;;;6309909;28;20048;-77
2024/03/05 10:15:22;;;;;;;9.70;5.18;;;14.70;53.10;;;;;;6296556;28;20020;-77
2024/03/05 10:18:34;;;;;;;9.98;5.18;;;14.80;52.80;;;;;;6300808;28;20141;-76
2024/03/05 10:21:34;;;;;;;11.00;5.28;;;14.90;52.60;;;;;;6291683;28;20020;-76
2024/03/05 10:24:35;;;;;;;13.20;5.60;;;14.90;52.30;;;;;;6305660;28;20539;-76
2024/03/05 10:27:37;;;;;;;6.63;3.75;;;15.00;52.30;;;;;;6291948;28;20032;-78
2024/03/05 10:30:42;;;;;;;7.50;3.80;;;15.00;51.90;;;;;;6268988;28;20586;-78
2024/03/05 10:33:46;;;;;;;7.03;3.88;;;15.00;51.50;;;;;;6285477;28;20028;-77
2024/03/05 10:36:47;;;;;;;7.40;4.03;;;15.10;51.40;;;;;;6302834;28;20146;-77
2024/03/05 10:39:49;;;;;;;6.22;2.65;;;15.50;51.30;;;;;;6310486;28;20043;-79
2024/03/05 10:42:52;;;;;;;1.50;1.02;;;15.90;50.40;;;;;;6301925;28;20029;-77
2024/03/05 10:45:54;;;;;;;2.45;1.15;;;16.40;48.70;;;;;;6288846;28;20544;-77
2024/03/05 10:48:57;;;;;;;2.67;0.93;;;16.80;47.30;;;;;;6301404;28;20067;-77
2024/03/05 10:52:04;;;;;;;3.55;0.60;;;17.20;46.10;;;;;;6302317;28;20016;-78
2024/03/05 10:55:11;;;;;;;1.00;0.77;;;17.50;44.60;;;;;;6299186;28;20077;-78
2024/03/05 11:01:24;;;;;;;6.53;1.02;;;17.90;43.60;;;;;;6313321;28;20035;-78
2024/03/05 11:04:27;;;;;;;0.88;0.70;;;18.00;42.80;;;;;;6317728;28;20020;-79
2024/03/05 11:07:28;;;;;;;0.80;0.68;;;18.10;42.20;;;;;;6313430;28;20021;-78
2024/03/05 11:10:30;;;;;;;0.95;0.75;;;18.10;41.70;;;;;;6295731;28;20020;-77
2024/03/05 11:13:34;;;;;;;2.67;0.98;;;18.10;40.70;;;;;;6294288;28;20033;-78
2024/03/05 11:16:35;;;;;;;2.65;0.90;;;18.00;40.60;;;;;;6277887;28;20024;-78
2024/03/05 11:19:38;;;;;;;0.85;0.60;;;17.90;40.50;;;;;;6279024;28;20350;-78
2024/03/05 11:22:45;;;;;;;11.43;0.93;;;17.70;40.80;;;;;;6301360;28;20020;-78
2024/03/05 11:25:51;;;;;;;8.05;1.13;;;17.60;40.80;;;;;;6304739;28;20051;-78
2024/03/05 11:29:05;;;;;;;3.15;1.25;;;17.50;41.20;;;;;;6291508;28;20341;-78
2024/03/05 11:32:14;;;;;;;1.25;0.77;;;17.50;40.80;;;;;;6289912;28;20016;-79
2024/03/05 11:35:18;;;;;;;2.60;0.90;;;17.30;41.50;;;;;;6302565;28;20028;-77
2024/03/05 11:38:19;;;;;;;3.72;1.38;;;17.20;41.40;;;;;;6301673;28;20147;-78
2024/03/05 11:41:30;;;;;;;4.18;1.30;;;17.10;41.60;;;;;;6312454;28;20540;-77
2024/03/05 11:44:41;;;;;;;3.67;1.08;;;17.00;41.80;;;;;;6290260;28;20028;-78
2024/03/05 11:47:43;;;;;;;0.93;0.60;;;16.90;41.80;;;;;;6313337;28;20094;-78
2024/03/05 11:50:46;;;;;;;2.70;0.85;;;16.80;41.70;;;;;;6287476;28;20032;-78
2024/03/05 11:53:46;;;;;;;2.83;0.70;;;16.80;41.50;;;;;;6292779;28;20024;-78
2024/03/05 11:56:59;;;;;;;9.10;1.08;;;16.80;41.20;;;;;;6296189;28;20133;-79
2024/03/05 12:00:00;;;;;;;1.13;0.80;;;16.80;41.00;;;;;;6293090;28;20028;-79
2024/03/05 12:03:03;;;;;;;1.33;0.75;;;16.80;40.80;;;;;;6315905;28;20326;-79
2024/03/05 12:06:07;;;;;;;1.45;0.55;;;16.80;40.70;;;;;;6311517;28;20666;-78
2024/03/05 12:09:18;;;;;;;1.98;0.77;;;16.80;40.50;;;;;;6299475;28;20112;-80
2024/03/05 12:12:23;;;;;;;0.93;0.70;;;16.70;40.60;;;;;;6311762;28;20092;-77
2024/03/05 12:15:24;;;;;;;3.10;0.90;;;16.50;41.20;;;;;;6288114;28;20056;-79
2024/03/05 12:18:27;;;;;;;4.07;0.63;;;16.30;41.70;;;;;;6282706;28;20020;-76
2024/03/05 12:21:28;;;;;;;2.95;1.27;;;16.20;42.30;;;;;;6309846;28;20012;-77
2024/03/05 12:24:30;;;;;;;1.95;0.60;;;15.90;43.90;;;;;;6310345;28;20040;-78
2024/03/05 12:27:34;;;;;;;0.93;0.40;;;15.50;44.70;;;;;;6309580;28;20027;-78
2024/03/05 12:30:35;;;;;;;0.95;0.50;;;15.20;45.70;;;;;;6287605;28;20021;-76
2024/03/05 12:33:37;;;;;;;1.77;0.50;;;14.90;46.70;;;;;;6290257;28;20071;-78
2024/03/05 12:36:38;;;;;;;2.17;1.05;;;14.60;47.30;;;;;;6299573;28;20051;-78
2024/03/05 12:44:03;;;;;;;0.20;0.20;;;14.20;47.60;;;;;;6309169;28;20036;-77
2024/03/05 12:47:14;;;;;;;0.45;0.43;;;14.10;47.70;;;;;;6302768;28;20021;-79
2024/03/05 12:50:19;;;;;;;1.52;0.30;;;14.20;47.40;;;;;;6305558;28;20119;-80
2024/03/05 12:53:20;;;;;;;1.95;0.63;;;14.30;46.90;;;;;;6284977;28;20020;-75
2024/03/05 12:56:26;;;;;;;0.40;0.25;;;14.50;46.70;;;;;;6298202;28;20325;-78
2024/03/05 12:59:28;;;;;;;0.40;0.38;;;14.80;45.90;;;;;;6286455;28;20771;-79
2024/03/05 13:02:30;;;;;;;0.13;0.10;;;15.10;44.90;;;;;;6314672;28;20034;-77
2024/03/05 13:05:31;;;;;;;0.60;0.20;;;15.30;43.80;;;;;;6304451;28;20107;-78
2024/03/05 13:08:34;;;;;;;1.45;0.30;;;15.40;42.90;;;;;;6275579;28;20100;-79
2024/03/05 13:11:35;;;;;;;0.10;0.10;;;15.50;42.20;;;;;;6307358;28;20043;-77
2024/03/05 13:14:37;;;;;;;0.20;0.20;;;16.00;40.90;;;;;;6306197;28;20050;-78
2024/03/05 13:17:44;;;;;;;0.90;0.38;;;16.10;39.90;;;;;;6280252;28;20100;-77
2024/03/05 13:20:47;;;;;;;0.38;0.30;;;16.30;40.00;;;;;;6309526;28;20035;-77
2024/03/05 13:23:48;;;;;;;0.43;0.30;;;16.30;40.00;;;;;;6291700;28;20032;-78
2024/03/05 13:26:50;;;;;;;0.15;0.08;;;16.20;39.60;;;;;;6310544;28;20017;-78
2024/03/05 13:29:51;;;;;;;0.17;0.10;;;16.20;39.40;;;;;;6273606;28;20399;-77
2024/03/05 13:32:52;;;;;;;0.17;0.17;;;16.20;38.90;;;;;;6297527;28;20440;-78
2024/03/05 13:35:55;;;;;;;0.25;0.25;;;16.20;38.50;;;;;;6313245;28;20060;-78
2024/03/05 13:38:59;;;;;;;0.35;0.35;;;16.20;38.50;;;;;;6324485;28;20032;-78
2024/03/05 13:42:02;;;;;;;2.83;1.30;;;16.20;38.60;;;;;;6304988;28;20028;-78
2024/03/05 13:45:15;;;;;;;1.08;0.60;;;16.30;38.70;;;;;;6304789;28;20051;-76
2024/03/05 13:48:16;;;;;;;0.70;0.60;;;16.30;38.70;;;;;;6304692;28;20017;-77
2024/03/05 13:51:18;;;;;;;0.40;0.30;;;16.30;38.70;;;;;;6303679;28;20100;-78
2024/03/05 13:54:21;;;;;;;1.05;0.30;;;16.20;38.80;;;;;;6308835;28;20020;-77
2024/03/05 13:57:22;;;;;;;0.43;0.28;;;16.30;38.80;;;;;;6287456;28;20036;-76
2024/03/05 14:00:26;;;;;;;2.38;0.70;;;16.30;38.90;;;;;;6312130;28;20047;-76
2024/03/05 14:03:28;;;;;;;3.42;0.40;;;16.40;38.80;;;;;;6290614;28;20102;-76
2024/03/05 14:06:36;;;;;;;0.93;0.30;;;16.40;38.80;;;;;;6310920;28;20040;-76
2024/03/05 14:09:40;;;;;;;2.42;0.30;;;16.50;38.80;;;;;;6307222;28;20016;-79
2024/03/05 14:12:41;;;;;;;1.05;0.50;;;16.60;38.70;;;;;;6303242;28;20025;-78
2024/03/05 14:15:42;;;;;;;0.88;0.47;;;16.80;38.60;;;;;;6301413;28;20024;-76
2024/03/05 14:18:47;;;;;;;0.30;0.28;;;17.00;38.60;;;;;;6304380;28;20706;-77
2024/03/05 14:21:52;;;;;;;2.28;0.50;;;17.20;38.70;;;;;;6303279;28;20021;-78
2024/03/05 14:24:53;;;;;;;0.77;0.40;;;17.20;38.80;;;;;;6290859;28;20048;-77
2024/03/05 14:27:55;;;;;;;1.75;0.40;;;17.30;38.80;;;;;;6304267;28;20102;-77
2024/03/05 14:30:56;;;;;;;3.30;0.68;;;17.30;38.40;;;;;;6310693;28;20016;-77
2024/03/05 14:33:57;;;;;;;1.58;0.40;;;17.20;38.20;;;;;;6319361;28;20047;-76
2024/03/05 14:36:58;;;;;;;1.08;0.55;;;17.10;38.00;;;;;;6304955;28;20024;-77
2024/03/05 14:39:59;;;;;;;0.60;0.28;;;17.00;38.00;;;;;;6292549;28;20027;-76
2024/03/05 14:43:03;;;;;;;0.10;0.10;;;16.90;37.70;;;;;;6299666;28;20461;-77
2024/03/05 14:46:05;;;;;;;0.93;0.40;;;16.90;38.20;;;;;;6304559;28;20033;-78
2024/03/05 14:49:08;;;;;;;0.40;0.30;;;16.90;38.10;;;;;;6306985;28;20020;-77
2024/03/05 14:52:09;;;;;;;0.38;0.20;;;16.90;38.20;;;;;;6313874;28;20016;-77
2024/03/05 14:55:15;;;;;;;1.35;0.40;;;17.00;38.10;;;;;;6303898;28;20023;-78
2024/03/05 14:58:15;;;;;;;0.20;0.20;;;16.90;37.80;;;;;;6304564;28;20036;-77
2024/03/05 15:01:16;;;;;;;0.52;0.40;;;16.90;37.70;;;;;;6308474;28;20448;-78
2024/03/05 15:04:17;;;;;;;0.30;0.30;;;16.80;37.60;;;;;;6302596;28;20032;-78
2024/03/05 15:07:18;;;;;;;1.45;0.60;;;16.70;37.70;;;;;;6299154;28;20110;-77
2024/03/05 15:10:20;;;;;;;0.40;0.30;;;16.70;37.70;;;;;;6315289;28;20020;-77
2024/03/05 15:13:23;;;;;;;0.40;0.40;;;16.50;37.90;;;;;;6311608;28;20349;-78
2024/03/05 15:16:24;;;;;;;1.17;0.50;;;16.40;38.10;;;;;;6296339;28;20028;-77
2024/03/05 15:19:25;;;;;;;2.00;0.70;;;16.20;38.60;;;;;;6297372;28;20071;-76
2024/03/05 15:22:27;;;;;;;0.43;0.28;;;15.80;39.50;;;;;;6282938;28;20107;-78
2024/03/05 15:25:30;;;;;;;3.38;0.28;;;15.50;40.70;;;;;;6290318;28;20087;-76
2024/03/05 15:28:36;;;;;;;0.47;0.35;;;15.30;41.70;;;;;;6301494;28;20421;-77
2024/03/05 15:31:37;;;;;;;0.55;0.30;;;15.00;42.70;;;;;;6316879;28;20093;-75
2024/03/05 15:34:38;;;;;;;2.63;0.40;;;14.80;43.70;;;;;;6318061;28;20085;-78
2024/03/05 15:37:44;;;;;;;0.70;0.50;;;14.60;44.90;;;;;;6311920;28;20055;-77
2024/03/05 15:40:46;;;;;;;0.73;0.40;;;14.30;46.10;;;;;;6294463;28;20024;-77
2024/03/05 15:43:47;;;;;;;1.55;0.30;;;13.80;48.10;;;;;;6329057;28;20027;-77
2024/03/05 15:46:48;;;;;;;0.85;0.30;;;13.40;49.40;;;;;;6281181;28;20687;-76
2024/03/05 15:49:49;;;;;;;1.50;0.30;;;13.10;50.20;;;;;;6300943;28;20051;-74
2024/03/05 15:52:56;;;;;;;0.77;0.30;;;12.80;50.70;;;;;;6286083;28;20046;-76
2024/03/05 15:56:01;;;;;;;0.50;0.30;;;12.60;51.60;;;;;;6297529;28;20020;-76
2024/03/05 16:02:23;;;;;;;0.57;0.52;;;12.40;52.00;;;;;;6296593;28;20135;-79
2024/03/05 16:05:27;;;;;;;0.30;0.30;;;12.30;52.10;;;;;;6313741;28;20419;-77
2024/03/05 16:08:28;;;;;;;0.68;0.35;;;12.30;52.60;;;;;;6303677;28;20110;-77